sensor_id;sensor_type;location;lat;lon;timestamp;P1;durP1;ratioP1;P2;durP2;ratioP2
21804;SDS011;11064;47.102;15.452;2023-04-25T04:03:34;3.80;;;3.40;;
21804;SDS011;11064;47.102;15.452;2023-04-25T04:06:04;8.07;;;4.93;;
21804;SDS011;11064;47.102;15.452;2023-04-25T04:08:31;7.38;;;5.68;;
21804;SDS011;11064;47.102;15.452;2023-04-25T04:10:58;7.20;;;5.90;;
21804;SDS011;11064;47.102;15.452;2023-04-25T04:13:27;7.50;;;5.63;;
21804;SDS011;11064;47.102;15.452;2023-04-25T04:15:54;5.82;;;4.93;;
21804;SDS011;11064;47.102;15.452;2023-04-25T04:18:20;7.13;;;4.65;;
21804;SDS011;11064;47.102;15.452;2023-04-25T04:20:47;6.30;;;4.10;;
21804;SDS011;11064;47.102;15.452;2023-04-25T04:23:13;4.20;;;3.60;;
21804;SDS011;11064;47.102;15.452;2023-04-25T04:25:38;3.60;;;3.25;;
21804;SDS011;11064;47.102;15.452;2023-04-25T04:28:05;3.88;;;3.10;;
21804;SDS011;11064;47.102;15.452;2023-04-25T04:30:32;5.03;;;2.95;;
21804;SDS011;11064;47.102;15.452;2023-04-25T04:33:01;5.07;;;2.72;;
21804;SDS011;11064;47.102;15.452;2023-04-25T04:35:27;5.00;;;2.90;;
21804;SDS011;11064;47.102;15.452;2023-04-25T04:37:53;3.33;;;2.90;;
21804;SDS011;11064;47.102;15.452;2023-04-25T04:40:19;2.60;;;2.40;;
21804;SDS011;11064;47.102;15.452;2023-04-25T04:42:47;2.97;;;2.25;;
21804;SDS011;11064;47.102;15.452;2023-04-25T04:45:13;2.42;;;2.20;;
21804;SDS011;11064;47.102;15.452;2023-04-25T04:47:39;3.58;;;2.25;;
21804;SDS011;11064;47.102;15.452;2023-04-25T04:50:06;2.00;;;1.80;;
21804;SDS011;11064;47.102;15.452;2023-04-25T04:52:34;2.28;;;2.08;;
21804;SDS011;11064;47.102;15.452;2023-04-25T04:55:01;2.90;;;1.90;;
21804;SDS011;11064;47.102;15.452;2023-04-25T04:57:28;3.35;;;1.80;;
21804;SDS011;11064;47.102;15.452;2023-04-25T04:59:54;2.05;;;1.70;;
21804;SDS011;11064;47.102;15.452;2023-04-25T05:02:20;2.28;;;1.70;;
21804;SDS011;11064;47.102;15.452;2023-04-25T05:04:45;1.85;;;1.60;;
21804;SDS011;11064;47.102;15.452;2023-04-25T05:07:12;3.30;;;1.70;;
21804;SDS011;11064;47.102;15.452;2023-04-25T05:09:38;4.38;;;1.48;;
21804;SDS011;11064;47.102;15.452;2023-04-25T05:12:04;3.35;;;1.45;;
21804;SDS011;11064;47.102;15.452;2023-04-25T05:14:30;2.67;;;1.70;;
21804;SDS011;11064;47.102;15.452;2023-04-25T05:16:56;2.20;;;1.55;;
21804;SDS011;11064;47.102;15.452;2023-04-25T05:19:22;1.63;;;1.52;;
21804;SDS011;11064;47.102;15.452;2023-04-25T05:21:48;2.53;;;1.40;;
21804;SDS011;11064;47.102;15.452;2023-04-25T05:24:14;1.58;;;1.42;;
21804;SDS011;11064;47.102;15.452;2023-04-25T05:26:40;2.28;;;1.60;;
21804;SDS011;11064;47.102;15.452;2023-04-25T05:29:05;1.55;;;1.45;;
21804;SDS011;11064;47.102;15.452;2023-04-25T05:31:31;2.45;;;1.38;;
21804;SDS011;11064;47.102;15.452;2023-04-25T05:33:57;1.73;;;1.45;;
21804;SDS011;11064;47.102;15.452;2023-04-25T05:36:23;3.38;;;1.42;;
21804;SDS011;11064;47.102;15.452;2023-04-25T05:38:49;1.70;;;1.40;;
21804;SDS011;11064;47.102;15.452;2023-04-25T05:41:15;2.75;;;1.30;;
21804;SDS011;11064;47.102;15.452;2023-04-25T05:43:41;3.15;;;1.20;;
21804;SDS011;11064;47.102;15.452;2023-04-25T05:46:12;3.80;;;1.60;;
21804;SDS011;11064;47.102;15.452;2023-04-25T05:48:38;2.03;;;1.65;;
21804;SDS011;11064;47.102;15.452;2023-04-25T05:51:04;2.70;;;1.90;;
21804;SDS011;11064;47.102;15.452;2023-04-25T05:53:30;3.10;;;1.85;;
21804;SDS011;11064;47.102;15.452;2023-04-25T05:55:56;2.08;;;1.80;;
21804;SDS011;11064;47.102;15.452;2023-04-25T05:58:22;1.08;;;0.98;;
21804;SDS011;11064;47.102;15.452;2023-04-25T06:00:48;4.75;;;2.13;;
21804;SDS011;11064;47.102;15.452;2023-04-25T06:03:14;1.90;;;1.55;;
21804;SDS011;11064;47.102;15.452;2023-04-25T06:05:43;3.30;;;1.20;;
21804;SDS011;11064;47.102;15.452;2023-04-25T06:08:09;1.58;;;1.05;;
21804;SDS011;11064;47.102;15.452;2023-04-25T06:10:35;1.92;;;1.58;;
21804;SDS011;11064;47.102;15.452;2023-04-25T06:13:02;4.65;;;1.70;;
21804;SDS011;11064;47.102;15.452;2023-04-25T06:15:27;2.00;;;1.40;;
21804;SDS011;11064;47.102;15.452;2023-04-25T06:17:53;2.55;;;1.40;;
21804;SDS011;11064;47.102;15.452;2023-04-25T06:20:20;2.55;;;1.27;;
21804;SDS011;11064;47.102;15.452;2023-04-25T06:22:48;4.47;;;1.65;;
21804;SDS011;11064;47.102;15.452;2023-04-25T06:25:15;1.48;;;1.30;;
21804;SDS011;11064;47.102;15.452;2023-04-25T06:27:41;1.63;;;1.30;;
21804;SDS011;11064;47.102;15.452;2023-04-25T06:30:06;3.25;;;1.30;;
21804;SDS011;11064;47.102;15.452;2023-04-25T06:32:33;1.85;;;1.20;;
21804;SDS011;11064;47.102;15.452;2023-04-25T06:34:59;1.70;;;1.30;;
21804;SDS011;11064;47.102;15.452;2023-04-25T06:37:25;2.97;;;1.38;;
21804;SDS011;11064;47.102;15.452;2023-04-25T06:39:51;2.50;;;1.90;;
21804;SDS011;11064;47.102;15.452;2023-04-25T06:42:17;3.60;;;2.00;;
21804;SDS011;11064;47.102;15.452;2023-04-25T06:44:44;4.15;;;3.33;;
21804;SDS011;11064;47.102;15.452;2023-04-25T06:47:10;4.10;;;2.30;;
21804;SDS011;11064;47.102;15.452;2023-04-25T06:49:35;5.03;;;2.70;;
21804;SDS011;11064;47.102;15.452;2023-04-25T06:52:02;4.30;;;3.17;;
21804;SDS011;11064;47.102;15.452;2023-04-25T06:54:28;2.92;;;2.40;;
21804;SDS011;11064;47.102;15.452;2023-04-25T06:56:55;5.15;;;2.67;;
21804;SDS011;11064;47.102;15.452;2023-04-25T06:59:21;5.13;;;2.45;;
21804;SDS011;11064;47.102;15.452;2023-04-25T07:01:47;3.55;;;2.42;;
21804;SDS011;11064;47.102;15.452;2023-04-25T07:04:12;3.35;;;2.30;;
21804;SDS011;11064;47.102;15.452;2023-04-25T07:06:38;5.82;;;2.97;;
21804;SDS011;11064;47.102;15.452;2023-04-25T07:09:08;6.38;;;2.70;;
21804;SDS011;11064;47.102;15.452;2023-04-25T07:11:35;4.45;;;2.47;;
21804;SDS011;11064;47.102;15.452;2023-04-25T07:14:01;2.63;;;2.15;;
21804;SDS011;11064;47.102;15.452;2023-04-25T07:16:27;3.42;;;1.90;;
21804;SDS011;11064;47.102;15.452;2023-04-25T07:18:53;2.42;;;1.73;;
21804;SDS011;11064;47.102;15.452;2023-04-25T07:21:19;1.88;;;1.48;;
21804;SDS011;11064;47.102;15.452;2023-04-25T07:23:45;1.02;;;0.90;;
21804;SDS011;11064;47.102;15.452;2023-04-25T07:26:11;1.88;;;1.10;;
21804;SDS011;11064;47.102;15.452;2023-04-25T07:28:37;2.00;;;1.10;;
21804;SDS011;11064;47.102;15.452;2023-04-25T07:31:02;1.42;;;1.00;;
21804;SDS011;11064;47.102;15.452;2023-04-25T07:33:29;1.45;;;1.00;;
21804;SDS011;11064;47.102;15.452;2023-04-25T07:35:54;2.05;;;0.98;;
21804;SDS011;11064;47.102;15.452;2023-04-25T07:38:21;2.80;;;1.23;;
21804;SDS011;11064;47.102;15.452;2023-04-25T07:40:47;2.88;;;1.10;;
21804;SDS011;11064;47.102;15.452;2023-04-25T07:43:14;1.98;;;1.50;;
21804;SDS011;11064;47.102;15.452;2023-04-25T07:45:45;4.53;;;1.50;;
21804;SDS011;11064;47.102;15.452;2023-04-25T07:48:11;3.57;;;2.07;;
21804;SDS011;11064;47.102;15.452;2023-04-25T07:50:43;3.88;;;1.98;;
21804;SDS011;11064;47.102;15.452;2023-04-25T07:53:10;3.67;;;2.05;;
21804;SDS011;11064;47.102;15.452;2023-04-25T07:55:36;2.78;;;1.83;;
21804;SDS011;11064;47.102;15.452;2023-04-25T07:58:05;2.25;;;1.42;;
21804;SDS011;11064;47.102;15.452;2023-04-25T08:00:31;2.72;;;1.40;;
21804;SDS011;11064;47.102;15.452;2023-04-25T08:02:57;2.63;;;1.10;;
21804;SDS011;11064;47.102;15.452;2023-04-25T08:05:23;4.53;;;1.20;;
21804;SDS011;11064;47.102;15.452;2023-04-25T08:07:49;1.27;;;1.08;;
21804;SDS011;11064;47.102;15.452;2023-04-25T08:10:15;2.03;;;0.90;;
21804;SDS011;11064;47.102;15.452;2023-04-25T08:12:41;2.15;;;1.20;;
21804;SDS011;11064;47.102;15.452;2023-04-25T08:15:06;1.70;;;1.30;;
21804;SDS011;11064;47.102;15.452;2023-04-25T08:17:33;3.10;;;1.20;;
21804;SDS011;11064;47.102;15.452;2023-04-25T08:19:59;2.33;;;1.27;;
21804;SDS011;11064;47.102;15.452;2023-04-25T08:22:25;1.85;;;0.90;;
21804;SDS011;11064;47.102;15.452;2023-04-25T08:24:50;1.77;;;1.00;;
21804;SDS011;11064;47.102;15.452;2023-04-25T08:27:17;1.92;;;1.00;;
21804;SDS011;11064;47.102;15.452;2023-04-25T08:29:43;2.35;;;1.08;;
21804;SDS011;11064;47.102;15.452;2023-04-25T08:32:09;1.23;;;1.05;;
21804;SDS011;11064;47.102;15.452;2023-04-25T08:34:35;1.42;;;1.10;;
21804;SDS011;11064;47.102;15.452;2023-04-25T08:37:03;6.38;;;1.20;;
21804;SDS011;11064;47.102;15.452;2023-04-25T08:39:29;1.85;;;1.10;;
21804;SDS011;11064;47.102;15.452;2023-04-25T08:41:55;1.98;;;1.20;;
21804;SDS011;11064;47.102;15.452;2023-04-25T08:44:22;3.97;;;1.50;;
21804;SDS011;11064;47.102;15.452;2023-04-25T08:46:48;8.98;;;2.10;;
21804;SDS011;11064;47.102;15.452;2023-04-25T08:49:17;2.42;;;1.73;;
21804;SDS011;11064;47.102;15.452;2023-04-25T08:51:44;3.83;;;2.03;;
21804;SDS011;11064;47.102;15.452;2023-04-25T08:54:15;2.25;;;1.80;;
21804;SDS011;11064;47.102;15.452;2023-04-25T08:56:43;2.83;;;1.63;;
21804;SDS011;11064;47.102;15.452;2023-04-25T08:59:11;2.45;;;1.65;;
21804;SDS011;11064;47.102;15.452;2023-04-25T09:01:37;3.60;;;1.33;;
21804;SDS011;11064;47.102;15.452;2023-04-25T09:04:03;3.08;;;1.33;;
21804;SDS011;11064;47.102;15.452;2023-04-25T09:06:30;2.58;;;1.35;;
21804;SDS011;11064;47.102;15.452;2023-04-25T09:09:06;2.08;;;1.40;;
21804;SDS011;11064;47.102;15.452;2023-04-25T09:11:34;1.63;;;1.30;;
21804;SDS011;11064;47.102;15.452;2023-04-25T09:14:36;2.92;;;1.30;;
21804;SDS011;11064;47.102;15.452;2023-04-25T09:19:24;3.38;;;1.13;;
21804;SDS011;11064;47.102;15.452;2023-04-25T09:22:00;5.20;;;1.20;;
21804;SDS011;11064;47.102;15.452;2023-04-25T09:24:35;4.45;;;1.20;;
21804;SDS011;11064;47.102;15.452;2023-04-25T09:27:03;2.20;;;0.95;;
21804;SDS011;11064;47.102;15.452;2023-04-25T09:29:34;2.22;;;1.20;;
21804;SDS011;11064;47.102;15.452;2023-04-25T09:32:21;3.67;;;1.10;;
21804;SDS011;11064;47.102;15.452;2023-04-25T09:34:53;2.05;;;1.05;;
21804;SDS011;11064;47.102;15.452;2023-04-25T09:37:24;3.25;;;1.10;;
21804;SDS011;11064;47.102;15.452;2023-04-25T09:39:55;2.40;;;1.10;;
21804;SDS011;11064;47.102;15.452;2023-04-25T09:42:24;1.05;;;0.95;;
21804;SDS011;11064;47.102;15.452;2023-04-25T09:44:53;2.78;;;0.93;;
21804;SDS011;11064;47.102;15.452;2023-04-25T09:47:20;2.78;;;1.10;;
21804;SDS011;11064;47.102;15.452;2023-04-25T09:49:48;2.63;;;1.00;;
21804;SDS011;11064;47.102;15.452;2023-04-25T09:52:18;1.27;;;1.10;;
21804;SDS011;11064;47.102;15.452;2023-04-25T09:54:47;1.98;;;0.98;;
21804;SDS011;11064;47.102;15.452;2023-04-25T09:57:18;1.23;;;0.88;;
21804;SDS011;11064;47.102;15.452;2023-04-25T09:59:49;2.33;;;0.95;;
21804;SDS011;11064;47.102;15.452;2023-04-25T10:02:17;1.60;;;0.93;;
21804;SDS011;11064;47.102;15.452;2023-04-25T10:04:48;2.67;;;1.20;;
21804;SDS011;11064;47.102;15.452;2023-04-25T10:07:19;2.25;;;0.90;;
21804;SDS011;11064;47.102;15.452;2023-04-25T10:09:49;1.58;;;1.00;;
21804;SDS011;11064;47.102;15.452;2023-04-25T10:12:16;1.67;;;0.82;;
21804;SDS011;11064;47.102;15.452;2023-04-25T10:14:42;5.03;;;1.10;;
21804;SDS011;11064;47.102;15.452;2023-04-25T10:17:09;2.25;;;1.00;;
21804;SDS011;11064;47.102;15.452;2023-04-25T10:19:36;1.20;;;0.90;;
21804;SDS011;11064;47.102;15.452;2023-04-25T10:22:07;3.05;;;0.90;;
21804;SDS011;11064;47.102;15.452;2023-04-25T10:24:39;1.83;;;0.88;;
21804;SDS011;11064;47.102;15.452;2023-04-25T10:27:06;1.25;;;1.05;;
21804;SDS011;11064;47.102;15.452;2023-04-25T10:29:33;1.55;;;0.90;;
21804;SDS011;11064;47.102;15.452;2023-04-25T10:32:00;3.75;;;0.90;;
21804;SDS011;11064;47.102;15.452;2023-04-25T10:34:43;1.75;;;1.10;;
21804;SDS011;11064;47.102;15.452;2023-04-25T10:37:12;1.08;;;0.80;;
21804;SDS011;11064;47.102;15.452;2023-04-25T10:39:39;2.72;;;1.20;;
21804;SDS011;11064;47.102;15.452;2023-04-25T10:42:09;1.67;;;0.90;;
21804;SDS011;11064;47.102;15.452;2023-04-25T10:44:37;2.17;;;0.85;;
21804;SDS011;11064;47.102;15.452;2023-04-25T10:47:06;1.73;;;1.10;;
21804;SDS011;11064;47.102;15.452;2023-04-25T10:49:37;2.78;;;1.08;;
21804;SDS011;11064;47.102;15.452;2023-04-25T10:52:11;2.72;;;1.05;;
21804;SDS011;11064;47.102;15.452;2023-04-25T10:54:42;5.78;;;1.02;;
21804;SDS011;11064;47.102;15.452;2023-04-25T10:57:36;1.15;;;0.95;;
21804;SDS011;11064;47.102;15.452;2023-04-25T11:02:42;1.90;;;1.00;;
21804;SDS011;11064;47.102;15.452;2023-04-25T11:05:14;3.72;;;1.30;;
21804;SDS011;11064;47.102;15.452;2023-04-25T11:07:50;2.60;;;1.15;;
21804;SDS011;11064;47.102;15.452;2023-04-25T11:10:18;5.18;;;0.93;;
21804;SDS011;11064;47.102;15.452;2023-04-25T11:12:45;1.50;;;0.85;;
21804;SDS011;11064;47.102;15.452;2023-04-25T11:15:12;1.27;;;0.90;;
21804;SDS011;11064;47.102;15.452;2023-04-25T11:17:38;5.93;;;1.13;;
21804;SDS011;11064;47.102;15.452;2023-04-25T11:20:06;1.23;;;0.80;;
21804;SDS011;11064;47.102;15.452;2023-04-25T11:22:37;2.55;;;0.80;;
21804;SDS011;11064;47.102;15.452;2023-04-25T11:25:06;1.80;;;1.13;;
21804;SDS011;11064;47.102;15.452;2023-04-25T11:27:33;1.40;;;0.85;;
21804;SDS011;11064;47.102;15.452;2023-04-25T11:30:15;2.58;;;0.93;;
21804;SDS011;11064;47.102;15.452;2023-04-25T11:32:42;1.85;;;0.90;;
21804;SDS011;11064;47.102;15.452;2023-04-25T11:35:08;1.67;;;0.90;;
21804;SDS011;11064;47.102;15.452;2023-04-25T11:37:35;1.30;;;0.80;;
21804;SDS011;11064;47.102;15.452;2023-04-25T11:40:05;2.80;;;0.90;;
21804;SDS011;11064;47.102;15.452;2023-04-25T11:42:32;1.90;;;0.77;;
21804;SDS011;11064;47.102;15.452;2023-04-25T11:44:58;1.83;;;1.00;;
21804;SDS011;11064;47.102;15.452;2023-04-25T11:47:29;1.48;;;0.73;;
21804;SDS011;11064;47.102;15.452;2023-04-25T11:49:57;1.15;;;1.00;;
21804;SDS011;11064;47.102;15.452;2023-04-25T11:52:34;1.83;;;0.95;;
21804;SDS011;11064;47.102;15.452;2023-04-25T11:55:01;1.58;;;0.80;;
21804;SDS011;11064;47.102;15.452;2023-04-25T11:57:30;0.93;;;0.80;;
21804;SDS011;11064;47.102;15.452;2023-04-25T12:00:04;1.08;;;0.82;;
21804;SDS011;11064;47.102;15.452;2023-04-25T12:02:45;2.08;;;0.77;;
21804;SDS011;11064;47.102;15.452;2023-04-25T12:05:13;3.40;;;0.90;;
21804;SDS011;11064;47.102;15.452;2023-04-25T12:07:43;1.08;;;0.80;;
21804;SDS011;11064;47.102;15.452;2023-04-25T12:10:16;3.10;;;0.90;;
21804;SDS011;11064;47.102;15.452;2023-04-25T12:12:44;2.60;;;0.70;;
21804;SDS011;11064;47.102;15.452;2023-04-25T12:15:11;1.42;;;0.85;;
21804;SDS011;11064;47.102;15.452;2023-04-25T12:17:41;1.42;;;0.90;;
21804;SDS011;11064;47.102;15.452;2023-04-25T12:20:10;1.42;;;0.98;;
21804;SDS011;11064;47.102;15.452;2023-04-25T12:22:42;1.40;;;0.82;;
21804;SDS011;11064;47.102;15.452;2023-04-25T12:25:13;2.55;;;0.82;;
21804;SDS011;11064;47.102;15.452;2023-04-25T12:30:52;2.55;;;0.70;;
21804;SDS011;11064;47.102;15.452;2023-04-25T12:33:29;2.55;;;0.70;;
21804;SDS011;11064;47.102;15.452;2023-04-25T12:40:52;1.13;;;0.90;;
21804;SDS011;11064;47.102;15.452;2023-04-25T12:43:19;0.90;;;0.70;;
21804;SDS011;11064;47.102;15.452;2023-04-25T12:45:47;1.40;;;0.70;;
21804;SDS011;11064;47.102;15.452;2023-04-25T12:48:15;3.20;;;0.70;;
21804;SDS011;11064;47.102;15.452;2023-04-25T12:50:41;1.35;;;0.70;;
21804;SDS011;11064;47.102;15.452;2023-04-25T12:53:07;0.88;;;0.82;;
21804;SDS011;11064;47.102;15.452;2023-04-25T12:55:33;1.48;;;0.70;;
21804;SDS011;11064;47.102;15.452;2023-04-25T12:57:59;2.10;;;0.80;;
21804;SDS011;11064;47.102;15.452;2023-04-25T13:00:24;1.02;;;0.70;;
21804;SDS011;11064;47.102;15.452;2023-04-25T13:02:51;2.55;;;0.70;;
21804;SDS011;11064;47.102;15.452;2023-04-25T13:05:17;3.85;;;0.75;;
21804;SDS011;11064;47.102;15.452;2023-04-25T13:07:43;0.95;;;0.50;;
21804;SDS011;11064;47.102;15.452;2023-04-25T13:10:09;1.40;;;0.70;;
21804;SDS011;11064;47.102;15.452;2023-04-25T13:12:36;0.80;;;0.70;;
21804;SDS011;11064;47.102;15.452;2023-04-25T13:15:02;1.55;;;0.70;;
21804;SDS011;11064;47.102;15.452;2023-04-25T13:17:28;1.00;;;0.70;;
21804;SDS011;11064;47.102;15.452;2023-04-25T13:19:53;0.90;;;0.50;;
21804;SDS011;11064;47.102;15.452;2023-04-25T13:22:19;7.10;;;1.25;;
21804;SDS011;11064;47.102;15.452;2023-04-25T13:24:45;1.77;;;0.70;;
21804;SDS011;11064;47.102;15.452;2023-04-25T13:27:12;0.82;;;0.70;;
21804;SDS011;11064;47.102;15.452;2023-04-25T13:29:38;1.88;;;0.68;;
21804;SDS011;11064;47.102;15.452;2023-04-25T13:32:05;0.90;;;0.70;;
21804;SDS011;11064;47.102;15.452;2023-04-25T13:34:32;1.98;;;0.70;;
21804;SDS011;11064;47.102;15.452;2023-04-25T13:36:58;0.95;;;0.68;;
21804;SDS011;11064;47.102;15.452;2023-04-25T13:39:24;1.30;;;0.77;;
21804;SDS011;11064;47.102;15.452;2023-04-25T13:41:50;3.05;;;0.70;;
21804;SDS011;11064;47.102;15.452;2023-04-25T13:44:15;1.02;;;0.80;;
21804;SDS011;11064;47.102;15.452;2023-04-25T13:46:41;1.63;;;0.68;;
21804;SDS011;11064;47.102;15.452;2023-04-25T13:49:07;1.42;;;0.80;;
21804;SDS011;11064;47.102;15.452;2023-04-25T13:51:34;2.05;;;0.88;;
21804;SDS011;11064;47.102;15.452;2023-04-25T13:53:59;1.48;;;0.90;;
21804;SDS011;11064;47.102;15.452;2023-04-25T13:56:25;2.67;;;0.98;;
21804;SDS011;11064;47.102;15.452;2023-04-25T13:58:51;2.20;;;1.00;;
21804;SDS011;11064;47.102;15.452;2023-04-25T14:01:17;3.05;;;1.13;;
21804;SDS011;11064;47.102;15.452;2023-04-25T14:03:44;1.33;;;1.23;;
21804;SDS011;11064;47.102;15.452;2023-04-25T14:06:10;1.58;;;0.90;;
21804;SDS011;11064;47.102;15.452;2023-04-25T14:08:37;3.53;;;0.98;;
21804;SDS011;11064;47.102;15.452;2023-04-25T14:11:04;1.13;;;0.80;;
21804;SDS011;11064;47.102;15.452;2023-04-25T14:13:29;1.70;;;0.88;;
21804;SDS011;11064;47.102;15.452;2023-04-25T14:15:55;3.40;;;1.00;;
21804;SDS011;11064;47.102;15.452;2023-04-25T14:18:21;3.00;;;0.82;;
21804;SDS011;11064;47.102;15.452;2023-04-25T14:20:47;1.95;;;1.00;;
21804;SDS011;11064;47.102;15.452;2023-04-25T14:23:13;6.47;;;0.95;;
21804;SDS011;11064;47.102;15.452;2023-04-25T14:25:39;1.83;;;1.00;;
21804;SDS011;11064;47.102;15.452;2023-04-25T14:28:07;1.85;;;0.98;;
21804;SDS011;11064;47.102;15.452;2023-04-25T14:30:32;2.28;;;1.20;;
21804;SDS011;11064;47.102;15.452;2023-04-25T14:32:58;2.03;;;1.00;;
21804;SDS011;11064;47.102;15.452;2023-04-25T14:35:24;1.88;;;1.00;;
21804;SDS011;11064;47.102;15.452;2023-04-25T14:37:50;4.60;;;1.00;;
21804;SDS011;11064;47.102;15.452;2023-04-25T14:40:16;2.15;;;0.80;;
21804;SDS011;11064;47.102;15.452;2023-04-25T14:42:42;1.58;;;0.90;;
21804;SDS011;11064;47.102;15.452;2023-04-25T14:45:08;2.30;;;0.88;;
21804;SDS011;11064;47.102;15.452;2023-04-25T14:47:37;3.85;;;0.90;;
21804;SDS011;11064;47.102;15.452;2023-04-25T14:50:03;1.15;;;0.70;;
21804;SDS011;11064;47.102;15.452;2023-04-25T14:52:30;1.33;;;0.85;;
21804;SDS011;11064;47.102;15.452;2023-04-25T14:54:56;1.33;;;0.73;;
21804;SDS011;11064;47.102;15.452;2023-04-25T14:57:22;1.35;;;0.70;;
21804;SDS011;11064;47.102;15.452;2023-04-25T14:59:47;2.25;;;0.65;;
21804;SDS011;11064;47.102;15.452;2023-04-25T15:02:13;2.13;;;0.70;;
21804;SDS011;11064;47.102;15.452;2023-04-25T15:04:39;0.93;;;0.70;;
21804;SDS011;11064;47.102;15.452;2023-04-25T15:07:04;1.33;;;0.90;;
21804;SDS011;11064;47.102;15.452;2023-04-25T15:09:30;1.15;;;0.77;;
21804;SDS011;11064;47.102;15.452;2023-04-25T15:11:57;0.70;;;0.70;;
21804;SDS011;11064;47.102;15.452;2023-04-25T15:14:23;0.68;;;0.63;;
21804;SDS011;11064;47.102;15.452;2023-04-25T15:16:49;1.85;;;0.70;;
21804;SDS011;11064;47.102;15.452;2023-04-25T15:19:15;2.38;;;0.63;;
21804;SDS011;11064;47.102;15.452;2023-04-25T15:21:41;1.70;;;0.80;;
21804;SDS011;11064;47.102;15.452;2023-04-25T15:24:06;1.35;;;0.70;;
21804;SDS011;11064;47.102;15.452;2023-04-25T15:26:32;1.30;;;0.70;;
21804;SDS011;11064;47.102;15.452;2023-04-25T15:28:58;2.05;;;0.60;;
21804;SDS011;11064;47.102;15.452;2023-04-25T15:31:24;1.58;;;0.60;;
21804;SDS011;11064;47.102;15.452;2023-04-25T15:33:50;0.68;;;0.63;;
21804;SDS011;11064;47.102;15.452;2023-04-25T15:36:15;0.50;;;0.40;;
21804;SDS011;11064;47.102;15.452;2023-04-25T15:38:43;3.90;;;0.70;;
21804;SDS011;11064;47.102;15.452;2023-04-25T15:41:09;1.33;;;0.70;;
21804;SDS011;11064;47.102;15.452;2023-04-25T15:43:35;0.80;;;0.60;;
21804;SDS011;11064;47.102;15.452;2023-04-25T15:46:03;0.60;;;0.60;;
21804;SDS011;11064;47.102;15.452;2023-04-25T15:48:29;1.05;;;0.77;;
21804;SDS011;11064;47.102;15.452;2023-04-25T15:50:56;2.90;;;0.70;;
21804;SDS011;11064;47.102;15.452;2023-04-25T15:53:22;0.73;;;0.60;;
21804;SDS011;11064;47.102;15.452;2023-04-25T15:55:48;1.02;;;0.65;;
21804;SDS011;11064;47.102;15.452;2023-04-25T15:58:14;1.15;;;0.57;;
21804;SDS011;11064;47.102;15.452;2023-04-25T16:00:40;1.48;;;0.70;;
21804;SDS011;11064;47.102;15.452;2023-04-25T16:03:06;1.33;;;0.57;;
21804;SDS011;11064;47.102;15.452;2023-04-25T16:05:33;0.57;;;0.57;;
21804;SDS011;11064;47.102;15.452;2023-04-25T16:07:59;1.60;;;0.60;;
21804;SDS011;11064;47.102;15.452;2023-04-25T16:10:25;0.85;;;0.80;;
21804;SDS011;11064;47.102;15.452;2023-04-25T16:12:50;1.33;;;0.73;;
21804;SDS011;11064;47.102;15.452;2023-04-25T16:15:16;1.00;;;0.80;;
21804;SDS011;11064;47.102;15.452;2023-04-25T16:17:42;1.00;;;0.70;;
21804;SDS011;11064;47.102;15.452;2023-04-25T16:20:08;1.23;;;0.60;;
21804;SDS011;11064;47.102;15.452;2023-04-25T16:22:39;1.13;;;0.57;;
21804;SDS011;11064;47.102;15.452;2023-04-25T16:27:33;0.70;;;0.57;;
21804;SDS011;11064;47.102;15.452;2023-04-25T16:30:00;3.10;;;0.60;;
21804;SDS011;11064;47.102;15.452;2023-04-25T16:32:26;1.13;;;0.70;;
21804;SDS011;11064;47.102;15.452;2023-04-25T16:34:52;0.82;;;0.52;;
21804;SDS011;11064;47.102;15.452;2023-04-25T16:37:18;1.45;;;0.70;;
21804;SDS011;11064;47.102;15.452;2023-04-25T16:39:44;2.10;;;0.63;;
21804;SDS011;11064;47.102;15.452;2023-04-25T16:42:11;0.60;;;0.60;;
21804;SDS011;11064;47.102;15.452;2023-04-25T16:44:37;1.05;;;0.63;;
21804;SDS011;11064;47.102;15.452;2023-04-25T16:47:03;1.92;;;0.68;;
21804;SDS011;11064;47.102;15.452;2023-04-25T16:49:30;0.73;;;0.65;;
21804;SDS011;11064;47.102;15.452;2023-04-25T16:51:56;0.75;;;0.60;;
21804;SDS011;11064;47.102;15.452;2023-04-25T16:54:22;1.55;;;0.60;;
21804;SDS011;11064;47.102;15.452;2023-04-25T16:56:50;0.68;;;0.60;;
21804;SDS011;11064;47.102;15.452;2023-04-25T16:59:16;0.70;;;0.70;;
21804;SDS011;11064;47.102;15.452;2023-04-25T17:01:42;0.68;;;0.65;;
21804;SDS011;11064;47.102;15.452;2023-04-25T17:04:07;0.90;;;0.70;;
21804;SDS011;11064;47.102;15.452;2023-04-25T17:06:33;0.65;;;0.65;;
21804;SDS011;11064;47.102;15.452;2023-04-25T17:08:59;1.25;;;0.77;;
21804;SDS011;11064;47.102;15.452;2023-04-25T17:11:25;2.17;;;0.73;;
21804;SDS011;11064;47.102;15.452;2023-04-25T17:13:51;1.05;;;0.80;;
21804;SDS011;11064;47.102;15.452;2023-04-25T17:16:20;1.73;;;0.75;;
21804;SDS011;11064;47.102;15.452;2023-04-25T17:18:50;1.27;;;0.80;;
21804;SDS011;11064;47.102;15.452;2023-04-25T17:21:16;2.25;;;0.90;;
21804;SDS011;11064;47.102;15.452;2023-04-25T17:23:42;3.30;;;0.60;;
21804;SDS011;11064;47.102;15.452;2023-04-25T17:26:11;1.88;;;0.70;;
21804;SDS011;11064;47.102;15.452;2023-04-25T17:28:38;0.85;;;0.73;;
21804;SDS011;11064;47.102;15.452;2023-04-25T17:31:06;3.20;;;0.88;;
21804;SDS011;11064;47.102;15.452;2023-04-25T17:33:32;0.70;;;0.60;;
21804;SDS011;11064;47.102;15.452;2023-04-25T17:35:58;2.63;;;0.82;;
21804;SDS011;11064;47.102;15.452;2023-04-25T17:38:24;0.70;;;0.70;;
21804;SDS011;11064;47.102;15.452;2023-04-25T17:40:50;0.90;;;0.80;;
21804;SDS011;11064;47.102;15.452;2023-04-25T17:43:16;0.60;;;0.60;;
21804;SDS011;11064;47.102;15.452;2023-04-25T17:45:42;0.65;;;0.65;;
21804;SDS011;11064;47.102;15.452;2023-04-25T17:48:08;1.38;;;0.70;;
21804;SDS011;11064;47.102;15.452;2023-04-25T17:50:34;5.78;;;1.42;;
21804;SDS011;11064;47.102;15.452;2023-04-25T17:53:00;0.82;;;0.60;;
21804;SDS011;11064;47.102;15.452;2023-04-25T17:55:27;0.65;;;0.60;;
21804;SDS011;11064;47.102;15.452;2023-04-25T17:57:54;0.60;;;0.60;;
21804;SDS011;11064;47.102;15.452;2023-04-25T18:00:20;0.95;;;0.88;;
21804;SDS011;11064;47.102;15.452;2023-04-25T18:02:46;0.70;;;0.70;;
21804;SDS011;11064;47.102;15.452;2023-04-25T18:05:15;0.60;;;0.60;;
21804;SDS011;11064;47.102;15.452;2023-04-25T18:07:42;1.52;;;0.80;;
21804;SDS011;11064;47.102;15.452;2023-04-25T18:10:08;0.90;;;0.70;;
21804;SDS011;11064;47.102;15.452;2023-04-25T18:12:36;0.70;;;0.70;;
21804;SDS011;11064;47.102;15.452;2023-04-25T18:15:02;0.98;;;0.70;;
21804;SDS011;11064;47.102;15.452;2023-04-25T18:17:33;1.47;;;0.80;;
21804;SDS011;11064;47.102;15.452;2023-04-25T18:20:04;0.63;;;0.60;;
21804;SDS011;11064;47.102;15.452;2023-04-25T18:22:34;0.90;;;0.80;;
21804;SDS011;11064;47.102;15.452;2023-04-25T18:25:11;0.60;;;0.60;;
21804;SDS011;11064;47.102;15.452;2023-04-25T18:27:38;0.60;;;0.60;;
21804;SDS011;11064;47.102;15.452;2023-04-25T18:30:05;0.73;;;0.57;;
21804;SDS011;11064;47.102;15.452;2023-04-25T18:32:33;1.27;;;0.60;;
21804;SDS011;11064;47.102;15.452;2023-04-25T18:34:59;0.88;;;0.60;;
21804;SDS011;11064;47.102;15.452;2023-04-25T18:37:25;0.70;;;0.70;;
21804;SDS011;11064;47.102;15.452;2023-04-25T18:39:52;1.00;;;0.80;;
21804;SDS011;11064;47.102;15.452;2023-04-25T18:42:18;0.70;;;0.70;;
21804;SDS011;11064;47.102;15.452;2023-04-25T18:44:45;1.13;;;0.75;;
21804;SDS011;11064;47.102;15.452;2023-04-25T18:47:11;1.52;;;0.70;;
21804;SDS011;11064;47.102;15.452;2023-04-25T18:49:37;0.80;;;0.70;;
21804;SDS011;11064;47.102;15.452;2023-04-25T18:52:05;0.70;;;0.70;;